Time,TemperatureF,DewpointF,PressureIn,WindDirection,WindDirectionDegrees,WindSpeedMPH,WindSpeedGustMPH,Humidity,HourlyPrecipIn,Conditions,Clouds,dailyrainin,SoftwareType,DateUTC
2013-10-14 00:00:00,43.3,30.8,30.33,NE,45,2.7,2.7,61,0.00,,CLR,0.00,VWS V14.01,2013-10-14 04:00:00,
2013-10-14 00:01:00,43.3,30.8,30.33,NE,45,2.7,2.7,61,0.00,,CLR,0.00,VWS V14.01,2013-10-14 04:01:00,
2013-10-14 00:03:00,43.5,31.0,30.33,NE,45,2.7,2.7,61,0.00,,CLR,0.00,VWS V14.01,2013-10-14 04:03:00,
2013-10-14 00:04:00,43.5,31.0,30.33,NE,45,2.7,2.7,61,0.00,,CLR,0.00,VWS V14.01,2013-10-14 04:04:00,
2013-10-14 00:05:00,43.5,31.0,30.33,NE,45,2.7,2.7,61,0.00,,CLR,0.00,VWS V14.01,2013-10-14 04:05:00,
2013-10-14 00:08:00,43.3,30.8,30.33,NE,45,2.7,2.7,61,0.00,,CLR,0.00,VWS V14.01,2013-10-14 04:08:00,
2013-10-14 00:13:00,43.2,31.0,30.33,NE,45,2.7,2.7,62,0.00,,CLR,0.00,VWS V14.01,2013-10-14 04:13:00,
2013-10-14 00:18:00,42.4,29.5,30.33,NE,45,2.7,2.7,60,0.00,,CLR,0.00,VWS V14.01,2013-10-14 04:18:00,
2013-10-14 00:23:00,42.4,29.5,30.33,NE,45,2.7,2.7,60,0.00,,CLR,0.00,VWS V14.01,2013-10-14 04:23:00,
2013-10-14 00:26:00,42.3,29.8,30.33,NE,45,2.7,2.7,61,0.00,,CLR,0.00,VWS V14.01,2013-10-14 04:26:00,
2013-10-14 00:31:00,42.1,30.0,30.33,NE,45,2.7,2.7,62,0.00,,CLR,0.00,VWS V14.01,2013-10-14 04:31:00,
2013-10-14 00:36:00,41.9,30.2,30.33,NE,45,2.7,2.7,63,0.00,,CLR,0.00,VWS V14.01,2013-10-14 04:36:00,
2013-10-14 00:41:00,41.5,30.3,30.33,NE,45,2.7,2.7,64,0.00,,CLR,0.00,VWS V14.01,2013-10-14 04:41:00,
2013-10-14 00:46:00,41.5,30.7,30.33,NE,45,2.7,2.7,65,0.00,,CLR,0.00,VWS V14.01,2013-10-14 04:46:00,
2013-10-14 00:51:00,41.7,31.6,30.33,NE,45,2.7,2.7,67,0.00,,CLR,0.00,VWS V14.01,2013-10-14 04:51:00,
2013-10-14 00:56:00,41.9,32.1,30.33,NE,45,2.7,2.7,68,0.00,,CLR,0.00,VWS V14.01,2013-10-14 04:56:00,
2013-10-14 01:00:00,42.1,32.7,30.33,NE,45,2.7,2.7,69,0.00,,CLR,0.00,VWS V14.01,2013-10-14 05:00:00,
2013-10-14 01:01:00,42.1,32.3,30.33,NE,45,2.7,2.7,68,0.00,,CLR,0.00,VWS V14.01,2013-10-14 05:01:00,
2013-10-14 01:06:00,42.1,32.3,30.36,NE,45,2.7,2.7,68,0.00,,CLR,0.00,VWS V14.01,2013-10-14 05:06:00,
2013-10-14 01:11:00,42.3,32.5,30.36,NE,45,2.7,2.7,68,0.00,,CLR,0.00,VWS V14.01,2013-10-14 05:11:00,
2013-10-14 01:16:00,42.3,32.5,30.36,NE,45,2.7,2.7,68,0.00,,CLR,0.00,VWS V14.01,2013-10-14 05:16:00,
2013-10-14 01:21:00,42.4,33.0,30.33,NE,45,2.7,2.7,69,0.00,,CLR,0.00,VWS V14.01,2013-10-14 05:21:00,
2013-10-14 01:26:00,42.3,32.5,30.33,NE,45,2.7,2.7,68,0.00,,CLR,0.00,VWS V14.01,2013-10-14 05:26:00,
2013-10-14 01:31:00,42.3,32.5,30.33,NE,45,2.7,2.7,68,0.00,,CLR,0.00,VWS V14.01,2013-10-14 05:31:00,
2013-10-14 01:36:00,42.1,32.7,30.36,NE,45,2.7,2.7,69,0.00,,CLR,0.00,VWS V14.01,2013-10-14 05:36:00,
2013-10-14 01:41:00,41.9,32.1,30.36,NE,45,2.7,2.7,68,0.00,,CLR,0.00,VWS V14.01,2013-10-14 05:41:00,
2013-10-14 01:46:00,41.5,32.1,30.36,NE,45,2.7,2.7,69,0.00,,CLR,0.00,VWS V14.01,2013-10-14 05:46:00,
2013-10-14 01:51:00,41.4,32.0,30.36,NE,45,2.7,2.7,69,0.00,,CLR,0.00,VWS V14.01,2013-10-14 05:51:00,
2013-10-14 01:56:00,41.2,31.8,30.36,NE,45,2.7,2.7,69,0.00,,CLR,0.00,VWS V14.01,2013-10-14 05:56:00,
2013-10-14 02:00:00,41.0,31.6,30.36,NE,45,2.7,2.7,69,0.00,,CLR,0.00,VWS V14.01,2013-10-14 06:00:00,
2013-10-14 02:01:00,40.8,31.8,30.36,NE,45,2.7,2.7,70,0.00,,CLR,0.00,VWS V14.01,2013-10-14 06:01:00,
2013-10-14 02:06:00,40.8,32.2,30.36,NE,45,2.7,2.7,71,0.00,,CLR,0.00,VWS V14.01,2013-10-14 06:06:00,
2013-10-14 02:11:00,41.0,32.0,30.36,NE,45,2.7,2.7,70,0.00,,CLR,0.00,VWS V14.01,2013-10-14 06:11:00,
2013-10-14 02:16:00,41.2,32.5,30.36,NE,45,2.7,2.7,71,0.00,,CLR,0.00,VWS V14.01,2013-10-14 06:16:00,
2013-10-14 02:21:00,41.0,32.3,30.36,NE,45,2.7,2.7,71,0.00,,CLR,0.00,VWS V14.01,2013-10-14 06:21:00,
2013-10-14 02:26:00,40.8,32.5,30.36,NE,45,2.7,2.7,72,0.00,,CLR,0.00,VWS V14.01,2013-10-14 06:26:00,
2013-10-14 02:31:00,41.0,32.7,30.36,NE,45,2.7,2.7,72,0.00,,CLR,0.00,VWS V14.01,2013-10-14 06:31:00,
2013-10-14 02:36:00,41.2,32.8,30.36,NE,45,2.7,2.7,72,0.00,,CLR,0.00,VWS V14.01,2013-10-14 06:36:00,
2013-10-14 02:42:00,41.2,32.8,30.36,NE,45,2.7,2.7,72,0.00,,CLR,0.00,VWS V14.01,2013-10-14 06:42:00,
2013-10-14 02:47:00,41.2,32.8,30.36,NE,45,2.7,2.7,72,0.00,,CLR,0.00,VWS V14.01,2013-10-14 06:47:00,
2013-10-14 02:52:00,41.4,33.4,30.36,NE,45,2.7,2.7,73,0.00,,CLR,0.00,VWS V14.01,2013-10-14 06:52:00,
2013-10-14 02:57:00,41.2,33.2,30.36,NE,45,2.7,2.7,73,0.00,,CLR,0.00,VWS V14.01,2013-10-14 06:57:00,
2013-10-14 03:00:00,41.0,33.0,30.36,NE,45,2.7,2.7,73,0.00,,CLR,0.00,VWS V14.01,2013-10-14 07:00:00,
2013-10-14 03:02:00,41.0,33.0,30.36,NE,45,2.7,2.7,73,0.00,,CLR,0.00,VWS V14.01,2013-10-14 07:02:00,
2013-10-14 03:07:00,40.8,33.2,30.36,NE,45,2.7,2.7,74,0.00,,CLR,0.00,VWS V14.01,2013-10-14 07:07:00,
2013-10-14 03:13:00,40.8,33.2,30.36,NE,45,2.7,2.7,74,0.00,,CLR,0.00,VWS V14.01,2013-10-14 07:13:00,
2013-10-14 03:18:00,41.0,33.4,30.36,NE,45,2.7,2.7,74,0.00,,CLR,0.00,VWS V14.01,2013-10-14 07:18:00,
2013-10-14 03:23:00,40.8,33.5,30.36,NE,45,2.7,2.7,75,0.00,,CLR,0.00,VWS V14.01,2013-10-14 07:23:00,
2013-10-14 03:28:00,40.6,33.3,30.36,NE,45,2.7,2.7,75,0.00,,CLR,0.00,VWS V14.01,2013-10-14 07:28:00,
2013-10-14 03:33:00,40.3,33.0,30.36,NE,45,2.7,2.7,75,0.00,,CLR,0.00,VWS V14.01,2013-10-14 07:33:00,
2013-10-14 03:38:00,40.1,32.5,30.36,NE,45,2.7,2.7,74,0.00,,CLR,0.00,VWS V14.01,2013-10-14 07:38:00,
2013-10-14 03:43:00,40.3,33.0,30.36,NE,45,2.7,2.7,75,0.00,,CLR,0.00,VWS V14.01,2013-10-14 07:43:00,
2013-10-14 03:48:00,40.3,33.3,30.36,NE,45,2.7,2.7,76,0.00,,CLR,0.00,VWS V14.01,2013-10-14 07:48:00,
2013-10-14 03:53:00,40.1,33.5,30.36,NE,45,2.7,2.7,77,0.00,,CLR,0.00,VWS V14.01,2013-10-14 07:53:00,
2013-10-14 03:58:00,40.1,33.5,30.36,NE,45,2.7,2.7,77,0.00,,CLR,0.00,VWS V14.01,2013-10-14 07:58:00,
2013-10-14 04:00:00,40.3,33.7,30.36,NE,45,2.7,2.7,77,0.00,,CLR,0.00,VWS V14.01,2013-10-14 08:00:00,
2013-10-14 04:03:00,40.3,33.7,30.36,NE,45,2.7,2.7,77,0.00,,CLR,0.00,VWS V14.01,2013-10-14 08:03:00,
2013-10-14 04:08:00,40.3,33.7,30.39,NE,45,2.7,2.7,77,0.00,,CLR,0.00,VWS V14.01,2013-10-14 08:08:00,
2013-10-14 04:13:00,40.1,33.5,30.39,NE,45,2.7,2.7,77,0.00,,CLR,0.00,VWS V14.01,2013-10-14 08:13:00,
2013-10-14 04:18:00,40.1,33.2,30.39,NE,45,2.7,2.7,76,0.00,,CLR,0.00,VWS V14.01,2013-10-14 08:18:00,
2013-10-14 04:23:00,39.7,32.8,30.39,NE,45,2.7,2.7,76,0.00,,CLR,0.00,VWS V14.01,2013-10-14 08:23:00,
2013-10-14 04:28:00,39.6,32.3,30.39,NE,45,2.7,2.7,75,0.00,,CLR,0.00,VWS V14.01,2013-10-14 08:28:00,
2013-10-14 04:33:00,39.4,32.5,30.39,NE,45,2.7,2.7,76,0.00,,CLR,0.00,VWS V14.01,2013-10-14 08:33:00,
2013-10-14 04:38:00,39.2,32.3,30.39,NE,45,2.7,2.7,76,0.00,,CLR,0.00,VWS V14.01,2013-10-14 08:38:00,
2013-10-14 04:43:00,38.8,31.9,30.39,NE,45,2.7,2.7,76,0.00,,CLR,0.00,VWS V14.01,2013-10-14 08:43:00,
2013-10-14 04:48:00,38.7,31.8,30.39,NE,45,2.7,2.7,76,0.00,,CLR,0.00,VWS V14.01,2013-10-14 08:48:00,
2013-10-14 04:53:00,38.5,31.9,30.39,NE,45,2.7,2.7,77,0.00,,CLR,0.00,VWS V14.01,2013-10-14 08:53:00,
2013-10-14 04:58:00,38.1,31.6,30.39,NE,45,2.7,2.7,77,0.00,,CLR,0.00,VWS V14.01,2013-10-14 08:58:00,
2013-10-14 05:00:00,37.9,31.4,30.39,NE,45,2.7,2.7,77,0.00,,CLR,0.00,VWS V14.01,2013-10-14 09:00:00,
2013-10-14 05:03:00,37.8,31.2,30.39,NE,45,2.7,2.7,77,0.00,,CLR,0.00,VWS V14.01,2013-10-14 09:03:00,
2013-10-14 05:08:00,37.6,31.4,30.39,NE,45,2.7,2.7,78,0.00,,CLR,0.00,VWS V14.01,2013-10-14 09:08:00,
2013-10-14 05:13:00,37.9,32.0,30.39,NE,45,2.7,2.7,79,0.00,,CLR,0.00,VWS V14.01,2013-10-14 09:13:00,
2013-10-14 05:18:00,37.6,31.4,30.39,NE,45,2.7,2.7,78,0.00,,CLR,0.00,VWS V14.01,2013-10-14 09:18:00,
2013-10-14 05:23:00,37.0,30.8,30.39,NE,45,2.7,2.7,78,0.00,,CLR,0.00,VWS V14.01,2013-10-14 09:23:00,
2013-10-14 05:28:00,37.0,31.1,30.39,NE,45,2.7,2.7,79,0.00,,CLR,0.00,VWS V14.01,2013-10-14 09:28:00,
2013-10-14 05:33:00,37.0,31.1,30.39,NE,45,2.7,2.7,79,0.00,,CLR,0.00,VWS V14.01,2013-10-14 09:33:00,
2013-10-14 05:38:00,37.0,31.1,30.39,NE,45,2.7,2.7,79,0.00,,CLR,0.00,VWS V14.01,2013-10-14 09:38:00,
2013-10-14 05:44:00,37.0,31.5,30.39,NE,45,2.7,2.7,80,0.00,,CLR,0.00,VWS V14.01,2013-10-14 09:44:00,
2013-10-14 05:49:00,37.6,32.3,30.39,NE,45,2.7,2.7,81,0.00,,CLR,0.00,VWS V14.01,2013-10-14 09:49:00,
2013-10-14 05:54:00,37.9,33.0,30.39,NE,45,2.7,2.7,82,0.00,,CLR,0.00,VWS V14.01,2013-10-14 09:54:00,
2013-10-14 05:59:00,37.8,32.8,30.39,NE,45,2.7,2.7,82,0.00,,CLR,0.00,VWS V14.01,2013-10-14 09:59:00,
2013-10-14 06:00:00,37.9,32.9,30.39,NE,45,2.7,2.7,82,0.00,,CLR,0.00,VWS V14.01,2013-10-14 10:00:00,
2013-10-14 06:04:00,37.9,33.2,30.39,NE,45,2.7,2.7,83,0.00,,CLR,0.00,VWS V14.01,2013-10-14 10:04:00,
2013-10-14 06:09:00,37.8,33.1,30.39,NE,45,2.7,2.7,83,0.00,,CLR,0.00,VWS V14.01,2013-10-14 10:09:00,
2013-10-14 06:14:00,37.6,32.6,30.39,NE,45,2.7,2.7,82,0.00,,CLR,0.00,VWS V14.01,2013-10-14 10:14:00,
2013-10-14 06:19:00,37.4,32.4,30.39,NE,45,2.7,2.7,82,0.00,,CLR,0.00,VWS V14.01,2013-10-14 10:19:00,
2013-10-14 06:24:00,37.4,32.1,30.39,NE,45,2.7,2.7,81,0.00,,CLR,0.00,VWS V14.01,2013-10-14 10:24:00,
2013-10-14 06:29:00,37.9,33.0,30.39,NE,45,2.7,2.7,82,0.00,,CLR,0.00,VWS V14.01,2013-10-14 10:29:00,
2013-10-14 06:34:00,38.1,33.4,30.39,NE,45,2.7,2.7,83,0.00,,CLR,0.00,VWS V14.01,2013-10-14 10:34:00,
2013-10-14 06:39:00,38.1,33.7,30.39,NE,45,2.7,2.7,84,0.00,,CLR,0.00,VWS V14.01,2013-10-14 10:39:00,
2013-10-14 06:44:00,38.1,33.7,30.39,NE,45,2.7,2.7,84,0.00,,CLR,0.00,VWS V14.01,2013-10-14 10:44:00,
2013-10-14 06:49:00,37.9,33.2,30.39,NE,45,2.7,2.7,83,0.00,,CLR,0.00,VWS V14.01,2013-10-14 10:49:00,
2013-10-14 06:54:00,38.5,34.1,30.39,NE,45,2.7,2.7,84,0.00,,CLR,0.00,VWS V14.01,2013-10-14 10:54:00,
2013-10-14 06:59:00,38.8,34.7,30.39,NE,45,2.7,2.7,85,0.00,,CLR,0.00,VWS V14.01,2013-10-14 10:59:00,
2013-10-14 07:00:00,38.8,34.7,30.39,NE,45,2.7,2.7,85,0.00,,CLR,0.00,VWS V14.01,2013-10-14 11:00:00,
2013-10-14 07:04:00,39.2,35.1,30.39,NE,45,2.7,2.7,85,0.00,,CLR,0.00,VWS V14.01,2013-10-14 11:04:00,
2013-10-14 07:09:00,39.6,35.4,30.39,NE,45,2.7,2.7,85,0.00,,CLR,0.00,VWS V14.01,2013-10-14 11:09:00,
2013-10-14 07:14:00,39.6,35.4,30.39,NE,45,2.7,2.7,85,0.00,,CLR,0.00,VWS V14.01,2013-10-14 11:14:00,
2013-10-14 07:19:00,39.4,35.2,30.41,NE,45,2.7,2.7,85,0.00,,CLR,0.00,VWS V14.01,2013-10-14 11:19:00,
2013-10-14 07:24:00,39.4,35.0,30.41,NE,45,2.7,2.7,84,0.00,,CLR,0.00,VWS V14.01,2013-10-14 11:24:00,
2013-10-14 07:29:00,39.4,34.7,30.41,NE,45,2.7,2.7,83,0.00,,CLR,0.00,VWS V14.01,2013-10-14 11:29:00,
2013-10-14 07:34:00,39.2,34.5,30.39,NE,45,2.7,2.7,83,0.00,,CLR,0.00,VWS V14.01,2013-10-14 11:34:00,
2013-10-14 07:39:00,39.0,34.0,30.39,NE,45,2.7,2.7,82,0.00,,CLR,0.00,VWS V14.01,2013-10-14 11:39:00,
2013-10-14 07:44:00,39.2,34.2,30.39,NE,45,2.7,2.7,82,0.00,,CLR,0.00,VWS V14.01,2013-10-14 11:44:00,
2013-10-14 07:49:00,39.4,34.3,30.39,NE,45,2.7,2.7,82,0.00,,CLR,0.00,VWS V14.01,2013-10-14 11:49:00,
2013-10-14 07:54:00,39.6,34.5,30.39,NE,45,2.7,2.7,82,0.00,,CLR,0.00,VWS V14.01,2013-10-14 11:54:00,
2013-10-14 07:59:00,40.1,35.7,30.39,NE,45,2.7,2.7,84,0.00,,CLR,0.00,VWS V14.01,2013-10-14 11:59:00,
2013-10-14 08:00:00,40.1,35.7,30.39,NE,45,2.7,2.7,84,0.00,,CLR,0.00,VWS V14.01,2013-10-14 12:00:00,
2013-10-14 08:04:00,40.8,36.7,30.39,NE,45,2.7,2.7,85,0.00,,CLR,0.00,VWS V14.01,2013-10-14 12:04:00,
2013-10-14 08:09:00,41.0,36.8,30.39,NE,45,2.7,2.7,85,0.00,,CLR,0.00,VWS V14.01,2013-10-14 12:09:00,
2013-10-14 08:14:00,41.0,36.8,30.39,NE,45,2.7,2.7,85,0.00,,CLR,0.00,VWS V14.01,2013-10-14 12:14:00,
2013-10-14 08:19:00,41.0,36.8,30.39,NE,45,2.7,2.7,85,0.00,,CLR,0.00,VWS V14.01,2013-10-14 12:19:00,
2013-10-14 08:24:00,41.0,36.8,30.39,NE,45,2.7,2.7,85,0.00,,CLR,0.00,VWS V14.01,2013-10-14 12:24:00,
2013-10-14 08:29:00,41.5,37.4,30.39,NE,45,2.7,2.7,85,0.00,,CLR,0.00,VWS V14.01,2013-10-14 12:29:00,
2013-10-14 08:34:00,43.2,39.3,30.36,NE,45,2.7,2.7,86,0.00,,CLR,0.00,VWS V14.01,2013-10-14 12:34:00,
2013-10-14 08:39:00,44.6,40.7,30.36,NE,45,2.7,2.7,86,0.00,,CLR,0.00,VWS V14.01,2013-10-14 12:39:00,
2013-10-14 08:44:00,46.2,42.3,30.36,NE,45,2.7,2.7,86,0.00,,CLR,0.00,VWS V14.01,2013-10-14 12:44:00,
2013-10-14 08:49:00,47.5,43.2,30.36,NE,45,2.7,2.7,85,0.00,,CLR,0.00,VWS V14.01,2013-10-14 12:49:00,
2013-10-14 08:54:00,48.6,43.3,30.36,NE,45,2.7,2.7,82,0.00,,CLR,0.00,VWS V14.01,2013-10-14 12:54:00,
2013-10-14 08:59:00,50.0,44.7,30.36,NE,45,2.7,2.7,82,0.00,,CLR,0.00,VWS V14.01,2013-10-14 12:59:00,
2013-10-14 09:00:00,50.5,45.3,30.36,NE,45,2.7,2.7,82,0.00,,CLR,0.00,VWS V14.01,2013-10-14 13:00:00,
2013-10-14 09:04:00,51.1,45.1,30.36,NE,45,2.7,2.7,80,0.00,,CLR,0.00,VWS V14.01,2013-10-14 13:04:00,
2013-10-14 09:09:00,52.2,45.2,30.36,NE,45,2.7,2.7,77,0.00,,CLR,0.00,VWS V14.01,2013-10-14 13:09:00,
2013-10-14 09:14:00,52.7,46.0,30.36,NE,45,2.7,2.7,78,0.00,,CLR,0.00,VWS V14.01,2013-10-14 13:14:00,
2013-10-14 09:19:00,52.9,45.9,30.33,NE,45,2.7,2.7,77,0.00,,CLR,0.00,VWS V14.01,2013-10-14 13:19:00,
2013-10-14 09:24:00,53.8,46.8,30.33,NE,45,2.7,2.7,77,0.00,,CLR,0.00,VWS V14.01,2013-10-14 13:24:00,
2013-10-14 09:29:00,54.3,46.6,30.33,NE,45,2.7,2.7,75,0.00,,CLR,0.00,VWS V14.01,2013-10-14 13:29:00,
2013-10-14 09:34:00,54.3,43.2,30.33,NE,45,2.7,2.7,66,0.00,,CLR,0.00,VWS V14.01,2013-10-14 13:34:00,
2013-10-14 09:39:00,54.7,39.3,30.33,NE,45,2.7,2.7,56,0.00,,CLR,0.00,VWS V14.01,2013-10-14 13:39:00,
2013-10-14 09:44:00,54.9,35.0,30.33,NE,45,2.7,2.7,47,0.00,,CLR,0.00,VWS V14.01,2013-10-14 13:44:00,
2013-10-14 09:49:00,54.9,33.4,30.33,NE,45,2.7,2.7,44,0.00,,CLR,0.00,VWS V14.01,2013-10-14 13:49:00,
2013-10-14 09:55:00,54.9,31.6,30.33,NE,45,2.7,2.7,41,0.00,,CLR,0.00,VWS V14.01,2013-10-14 13:55:00,
2013-10-14 10:00:00,55.2,32.0,30.33,NE,45,2.7,2.7,41,0.00,,CLR,0.00,VWS V14.01,2013-10-14 14:00:00,
2013-10-14 10:05:00,55.4,30.9,30.30,NE,45,2.7,2.7,39,0.00,,CLR,0.00,VWS V14.01,2013-10-14 14:05:00,
2013-10-14 10:10:00,55.8,31.2,30.30,NE,45,2.7,2.7,39,0.00,,CLR,0.00,VWS V14.01,2013-10-14 14:10:00,
2013-10-14 10:15:00,55.6,30.4,30.30,NE,45,2.7,2.7,38,0.00,,CLR,0.00,VWS V14.01,2013-10-14 14:15:00,
2013-10-14 10:20:00,56.1,31.5,30.33,NE,45,2.7,2.7,39,0.00,,CLR,0.00,VWS V14.01,2013-10-14 14:20:00,
2013-10-14 10:25:00,56.5,31.2,30.33,NE,45,2.7,2.7,38,0.00,,CLR,0.00,VWS V14.01,2013-10-14 14:25:00,
2013-10-14 10:30:00,56.5,29.9,30.33,NE,45,2.7,2.7,36,0.00,,CLR,0.00,VWS V14.01,2013-10-14 14:30:00,
2013-10-14 10:35:00,56.8,30.9,30.33,NE,45,2.7,2.7,37,0.00,,CLR,0.00,VWS V14.01,2013-10-14 14:35:00,
2013-10-14 10:40:00,57.2,30.5,30.33,NE,45,2.7,2.7,36,0.00,,CLR,0.00,VWS V14.01,2013-10-14 14:40:00,
2013-10-14 10:45:00,57.6,30.8,30.33,NE,45,2.7,2.7,36,0.00,,CLR,0.00,VWS V14.01,2013-10-14 14:45:00,
2013-10-14 10:50:00,58.1,30.6,30.36,NE,45,2.7,2.7,35,0.00,,CLR,0.00,VWS V14.01,2013-10-14 14:50:00,
2013-10-14 10:55:00,58.5,30.9,30.36,NE,45,2.7,2.7,35,0.00,,CLR,0.00,VWS V14.01,2013-10-14 14:55:00,
2013-10-14 11:00:00,58.6,30.4,30.36,NE,45,2.7,2.7,34,0.00,,CLR,0.00,VWS V14.01,2013-10-14 15:00:00,
2013-10-14 11:05:00,58.6,29.6,30.36,NE,45,2.7,2.7,33,0.00,,CLR,0.00,VWS V14.01,2013-10-14 15:05:00,
2013-10-14 11:10:00,59.4,27.9,30.36,NE,45,2.7,2.7,30,0.00,,CLR,0.00,VWS V14.01,2013-10-14 15:10:00,
2013-10-14 11:15:00,59.9,30.0,30.36,NE,45,2.7,2.7,32,0.00,,CLR,0.00,VWS V14.01,2013-10-14 15:15:00,
2013-10-14 11:20:00,59.7,28.3,30.36,NE,45,2.7,2.7,30,0.00,,CLR,0.00,VWS V14.01,2013-10-14 15:20:00,
2013-10-14 11:25:00,59.7,26.6,30.36,NE,45,2.7,2.7,28,0.00,,CLR,0.00,VWS V14.01,2013-10-14 15:25:00,
2013-10-14 11:30:00,60.4,29.7,30.36,NE,45,2.7,2.7,31,0.00,,CLR,0.00,VWS V14.01,2013-10-14 15:30:00,
2013-10-14 11:35:00,60.4,28.1,30.39,NE,45,2.7,2.7,29,0.00,,CLR,0.00,VWS V14.01,2013-10-14 15:35:00,
2013-10-14 11:40:00,62.1,31.9,30.39,NE,45,2.7,2.7,32,0.00,,CLR,0.00,VWS V14.01,2013-10-14 15:40:00,
2013-10-14 11:45:00,62.2,29.6,30.39,NE,45,2.7,2.7,29,0.00,,CLR,0.00,VWS V14.01,2013-10-14 15:45:00,
2013-10-14 11:50:00,61.5,27.2,30.39,NE,45,2.7,2.7,27,0.00,,CLR,0.00,VWS V14.01,2013-10-14 15:50:00,
2013-10-14 11:55:00,61.3,26.2,30.39,NE,45,2.7,2.7,26,0.00,,CLR,0.00,VWS V14.01,2013-10-14 15:55:00,
2013-10-14 12:00:00,62.1,26.8,30.39,NE,45,2.7,2.7,26,0.00,,CLR,0.00,VWS V14.01,2013-10-14 16:00:00,
2013-10-14 12:05:00,62.6,28.2,30.39,NE,45,2.7,2.7,27,0.00,,CLR,0.00,VWS V14.01,2013-10-14 16:05:00,
2013-10-14 12:10:00,62.8,27.4,30.39,NE,45,2.7,2.7,26,0.00,,CLR,0.00,VWS V14.01,2013-10-14 16:10:00,
2013-10-14 12:15:00,62.4,27.1,30.39,NE,45,2.7,2.7,26,0.00,,CLR,0.00,VWS V14.01,2013-10-14 16:15:00,
2013-10-14 12:20:00,63.1,27.7,30.36,NE,45,2.7,2.7,26,0.00,,CLR,0.00,VWS V14.01,2013-10-14 16:20:00,
2013-10-14 12:25:00,63.9,28.3,30.36,NE,45,2.7,2.7,26,0.00,,CLR,0.00,VWS V14.01,2013-10-14 16:25:00,
2013-10-14 12:30:00,63.9,28.3,30.36,NE,45,2.7,2.7,26,0.00,,CLR,0.00,VWS V14.01,2013-10-14 16:30:00,
2013-10-14 12:35:00,64.6,29.9,30.36,NE,45,2.7,2.7,27,0.00,,CLR,0.00,VWS V14.01,2013-10-14 16:35:00,
2013-10-14 12:40:00,64.6,28.0,30.36,NE,45,2.7,2.7,25,0.00,,CLR,0.00,VWS V14.01,2013-10-14 16:40:00,
2013-10-14 12:45:00,63.7,26.2,30.36,NE,45,2.7,2.7,24,0.00,,CLR,0.00,VWS V14.01,2013-10-14 16:45:00,
2013-10-14 12:50:00,63.9,26.4,30.36,NE,45,2.7,2.7,24,0.00,,CLR,0.00,VWS V14.01,2013-10-14 16:50:00,
2013-10-14 12:55:00,65.1,27.5,30.36,NE,45,2.7,2.7,24,0.00,,CLR,0.00,VWS V14.01,2013-10-14 16:55:00,
2013-10-14 13:00:00,65.5,26.7,30.36,NE,45,2.7,2.7,23,0.00,,CLR,0.00,VWS V14.01,2013-10-14 17:00:00,
2013-10-14 13:05:00,64.6,26.0,30.36,NE,45,2.7,2.7,23,0.00,,CLR,0.00,VWS V14.01,2013-10-14 17:05:00,
2013-10-14 13:10:00,65.3,26.6,30.33,NE,45,2.7,2.7,23,0.00,,CLR,0.00,VWS V14.01,2013-10-14 17:10:00,
2013-10-14 13:16:00,66.0,27.2,30.33,NE,45,2.7,2.7,23,0.00,,CLR,0.00,VWS V14.01,2013-10-14 17:16:00,
2013-10-14 13:21:00,66.2,27.3,30.33,NE,45,2.7,2.7,23,0.00,,CLR,0.00,VWS V14.01,2013-10-14 17:21:00,
2013-10-14 13:26:00,66.2,27.3,30.33,NE,45,2.7,2.7,23,0.00,,CLR,0.00,VWS V14.01,2013-10-14 17:26:00,
2013-10-14 13:31:00,66.2,26.3,30.33,NE,45,2.7,2.7,22,0.00,,CLR,0.00,VWS V14.01,2013-10-14 17:31:00,
2013-10-14 13:36:00,65.5,26.7,30.33,NE,45,2.7,2.7,23,0.00,,CLR,0.00,VWS V14.01,2013-10-14 17:36:00,
2013-10-14 13:41:00,65.7,26.9,30.33,NE,45,2.7,2.7,23,0.00,,CLR,0.00,VWS V14.01,2013-10-14 17:41:00,
2013-10-14 13:46:00,66.6,27.6,30.33,NE,45,2.7,2.7,23,0.00,,CLR,0.00,VWS V14.01,2013-10-14 17:46:00,
2013-10-14 13:51:00,66.4,27.5,30.33,NE,45,2.7,2.7,23,0.00,,CLR,0.00,VWS V14.01,2013-10-14 17:51:00,
2013-10-14 13:56:00,66.7,26.7,30.33,NE,45,2.7,2.7,22,0.00,,CLR,0.00,VWS V14.01,2013-10-14 17:56:00,
2013-10-14 14:00:00,68.4,28.1,30.33,NE,45,2.7,2.7,22,0.00,,CLR,0.00,VWS V14.01,2013-10-14 18:00:00,
2013-10-14 14:01:00,68.2,27.9,30.33,NE,45,2.7,2.7,22,0.00,,CLR,0.00,VWS V14.01,2013-10-14 18:01:00,
2013-10-14 14:06:00,68.0,25.5,30.33,NE,45,2.7,2.7,20,0.00,,CLR,0.00,VWS V14.01,2013-10-14 18:06:00,
2013-10-14 14:11:00,68.7,26.1,30.33,NE,45,2.7,2.7,20,0.00,,CLR,0.00,VWS V14.01,2013-10-14 18:11:00,
2013-10-14 14:16:00,67.6,25.2,30.33,NE,45,2.7,2.7,20,0.00,,CLR,0.00,VWS V14.01,2013-10-14 18:16:00,
2013-10-14 14:21:00,67.6,25.2,30.33,NE,45,2.7,2.7,20,0.00,,CLR,0.00,VWS V14.01,2013-10-14 18:21:00,
2013-10-14 14:26:00,68.0,25.5,30.33,NE,45,2.7,2.7,20,0.00,,CLR,0.00,VWS V14.01,2013-10-14 18:26:00,
2013-10-14 14:31:00,67.6,25.2,30.33,NE,45,2.7,2.7,20,0.00,,CLR,0.00,VWS V14.01,2013-10-14 18:31:00,
2013-10-14 14:36:00,68.0,25.5,30.33,NE,45,2.7,2.7,20,0.00,,CLR,0.00,VWS V14.01,2013-10-14 18:36:00,
2013-10-14 14:41:00,68.9,26.2,30.33,NE,45,2.7,2.7,20,0.00,,CLR,0.00,VWS V14.01,2013-10-14 18:41:00,
2013-10-14 14:46:00,68.4,28.1,30.33,NE,45,2.7,2.7,22,0.00,,CLR,0.00,VWS V14.01,2013-10-14 18:46:00,
2013-10-14 14:51:00,68.9,26.2,30.33,NE,45,2.7,2.7,20,0.00,,CLR,0.00,VWS V14.01,2013-10-14 18:51:00,
2013-10-14 14:56:00,68.5,25.9,30.33,NE,45,2.7,2.7,20,0.00,,CLR,0.00,VWS V14.01,2013-10-14 18:56:00,
2013-10-14 15:00:00,68.2,25.6,30.33,NE,45,2.7,2.7,20,0.00,,CLR,0.00,VWS V14.01,2013-10-14 19:00:00,
2013-10-14 15:01:00,68.0,25.5,30.33,NE,45,2.7,2.7,20,0.00,,CLR,0.00,VWS V14.01,2013-10-14 19:01:00,
2013-10-14 15:06:00,67.8,21.5,30.33,NE,45,2.7,2.7,17,0.00,,CLR,0.00,VWS V14.01,2013-10-14 19:06:00,
2013-10-14 15:11:00,68.2,25.6,30.33,NE,45,2.7,2.7,20,0.00,,CLR,0.00,VWS V14.01,2013-10-14 19:11:00,
2013-10-14 15:16:00,69.3,26.5,30.33,NE,45,2.7,2.7,20,0.00,,CLR,0.00,VWS V14.01,2013-10-14 19:16:00,
2013-10-14 15:21:00,69.1,26.4,30.30,NE,45,2.7,2.7,20,0.00,,CLR,0.00,VWS V14.01,2013-10-14 19:21:00,
2013-10-14 15:26:00,68.5,25.9,30.30,NE,45,2.7,2.7,20,0.00,,CLR,0.00,VWS V14.01,2013-10-14 19:26:00,
2013-10-14 15:31:00,69.8,25.7,30.30,NE,45,2.7,2.7,19,0.00,,CLR,0.00,VWS V14.01,2013-10-14 19:31:00,
2013-10-14 15:36:00,68.5,25.9,30.33,NE,45,2.7,2.7,20,0.00,,CLR,0.00,VWS V14.01,2013-10-14 19:36:00,
2013-10-14 15:41:00,68.4,21.9,30.33,NE,45,2.7,2.7,17,0.00,,CLR,0.00,VWS V14.01,2013-10-14 19:41:00,
2013-10-14 15:46:00,66.9,20.7,30.33,NE,45,2.7,2.7,17,0.00,,CLR,0.00,VWS V14.01,2013-10-14 19:46:00,
2013-10-14 15:51:00,66.9,20.7,30.30,NE,45,2.7,2.7,17,0.00,,CLR,0.00,VWS V14.01,2013-10-14 19:51:00,
2013-10-14 15:56:00,67.8,25.3,30.30,NE,45,2.7,2.7,20,0.00,,CLR,0.00,VWS V14.01,2013-10-14 19:56:00,
2013-10-14 16:00:00,68.5,25.9,30.30,NE,45,2.7,2.7,20,0.00,,CLR,0.00,VWS V14.01,2013-10-14 20:00:00,
2013-10-14 16:01:00,68.5,22.0,30.30,NE,45,2.7,2.7,17,0.00,,CLR,0.00,VWS V14.01,2013-10-14 20:01:00,
2013-10-14 16:07:00,67.8,25.3,30.33,NE,45,2.7,2.7,20,0.00,,CLR,0.00,VWS V14.01,2013-10-14 20:07:00,
2013-10-14 16:12:00,67.3,24.9,30.33,NE,45,2.7,2.7,20,0.00,,CLR,0.00,VWS V14.01,2013-10-14 20:12:00,
2013-10-14 16:17:00,67.8,25.3,30.33,NE,45,2.7,2.7,20,0.00,,CLR,0.00,VWS V14.01,2013-10-14 20:17:00,
2013-10-14 16:22:00,68.7,26.1,30.30,NE,45,2.7,2.7,20,0.00,,CLR,0.00,VWS V14.01,2013-10-14 20:22:00,
2013-10-14 16:27:00,68.5,22.0,30.30,NE,45,2.7,2.7,17,0.00,,CLR,0.00,VWS V14.01,2013-10-14 20:27:00,
2013-10-14 16:32:00,68.4,25.8,30.30,NE,45,2.7,2.7,20,0.00,,CLR,0.00,VWS V14.01,2013-10-14 20:32:00,
2013-10-14 16:37:00,67.8,21.5,30.30,NE,45,2.7,2.7,17,0.00,,CLR,0.00,VWS V14.01,2013-10-14 20:37:00,
2013-10-14 16:42:00,67.1,24.7,30.30,NE,45,2.7,2.7,20,0.00,,CLR,0.00,VWS V14.01,2013-10-14 20:42:00,
2013-10-14 16:47:00,67.3,24.9,30.30,NE,45,2.7,2.7,20,0.00,,CLR,0.00,VWS V14.01,2013-10-14 20:47:00,
2013-10-14 16:52:00,66.9,24.6,30.30,NE,45,2.7,2.7,20,0.00,,CLR,0.00,VWS V14.01,2013-10-14 20:52:00,
2013-10-14 16:59:00,66.9,24.6,30.30,NE,45,2.7,2.7,20,0.00,,CLR,0.00,VWS V14.01,2013-10-14 20:59:00,
2013-10-14 17:04:00,67.3,24.9,30.30,NE,45,2.7,2.7,20,0.00,,CLR,0.00,VWS V14.01,2013-10-14 21:04:00,
2013-10-14 17:09:00,67.6,25.2,30.30,NE,45,2.7,2.7,20,0.00,,CLR,0.00,VWS V14.01,2013-10-14 21:09:00,
2013-10-14 17:14:00,66.9,24.6,30.30,NE,45,2.7,2.7,20,0.00,,CLR,0.00,VWS V14.01,2013-10-14 21:14:00,
2013-10-14 17:19:00,65.7,23.5,30.30,NE,45,2.7,2.7,20,0.00,,CLR,0.00,VWS V14.01,2013-10-14 21:19:00,
2013-10-14 17:24:00,64.4,25.8,30.30,NE,45,2.7,2.7,23,0.00,,CLR,0.00,VWS V14.01,2013-10-14 21:24:00,
2013-10-14 17:29:00,62.2,25.0,30.30,NE,45,2.7,2.7,24,0.00,,CLR,0.00,VWS V14.01,2013-10-14 21:29:00,
2013-10-14 17:34:00,61.0,24.0,30.30,NE,45,2.7,2.7,24,0.00,,CLR,0.00,VWS V14.01,2013-10-14 21:34:00,
2013-10-14 17:39:00,60.4,24.5,30.30,NE,45,2.7,2.7,25,0.00,,CLR,0.00,VWS V14.01,2013-10-14 21:39:00,
2013-10-14 17:44:00,60.3,24.3,30.30,NE,45,2.7,2.7,25,0.00,,CLR,0.00,VWS V14.01,2013-10-14 21:44:00,
2013-10-14 17:49:00,60.3,25.3,30.30,NE,45,2.7,2.7,26,0.00,,CLR,0.00,VWS V14.01,2013-10-14 21:49:00,
2013-10-14 17:54:00,59.5,24.6,30.30,NE,45,2.7,2.7,26,0.00,,CLR,0.00,VWS V14.01,2013-10-14 21:54:00,
2013-10-14 17:59:00,59.4,25.4,30.30,NE,45,2.7,2.7,27,0.00,,CLR,0.00,VWS V14.01,2013-10-14 21:59:00,
2013-10-14 18:04:00,58.6,24.8,30.30,NE,45,2.7,2.7,27,0.00,,CLR,0.00,VWS V14.01,2013-10-14 22:04:00,
2013-10-14 18:09:00,58.5,25.5,30.30,NE,45,2.7,2.7,28,0.00,,CLR,0.00,VWS V14.01,2013-10-14 22:09:00,
2013-10-14 18:14:00,58.1,30.6,30.30,NE,45,2.7,2.7,35,0.00,,CLR,0.00,VWS V14.01,2013-10-14 22:14:00,
2013-10-14 18:19:00,57.6,30.1,30.27,NE,45,2.7,2.7,35,0.00,,CLR,0.00,VWS V14.01,2013-10-14 22:19:00,
2013-10-14 18:24:00,57.2,30.5,30.27,NE,45,2.7,2.7,36,0.00,,CLR,0.00,VWS V14.01,2013-10-14 22:24:00,
2013-10-14 18:29:00,56.8,30.9,30.27,NE,45,2.7,2.7,37,0.00,,CLR,0.00,VWS V14.01,2013-10-14 22:29:00,
2013-10-14 18:34:00,56.3,31.0,30.24,NE,45,2.7,2.7,38,0.00,,CLR,0.00,VWS V14.01,2013-10-14 22:34:00,
2013-10-14 18:39:00,55.8,30.6,30.24,NE,45,2.7,2.7,38,0.00,,CLR,0.00,VWS V14.01,2013-10-14 22:39:00,
2013-10-14 18:44:00,55.2,31.3,30.24,NE,45,2.7,2.7,40,0.00,,CLR,0.00,VWS V14.01,2013-10-14 22:44:00,
2013-10-14 18:49:00,54.7,30.9,30.27,NE,45,2.7,2.7,40,0.00,,CLR,0.00,VWS V14.01,2013-10-14 22:49:00,
2013-10-14 18:54:00,54.3,31.1,30.27,NE,45,2.7,2.7,41,0.00,,CLR,0.00,VWS V14.01,2013-10-14 22:54:00,
2013-10-14 18:59:00,53.8,31.8,30.27,NE,45,2.7,2.7,43,0.00,,CLR,0.00,VWS V14.01,2013-10-14 22:59:00,
2013-10-14 19:04:00,53.4,32.1,30.24,NE,45,2.7,2.7,44,0.00,,CLR,0.00,VWS V14.01,2013-10-14 23:04:00,
2013-10-14 19:09:00,53.1,32.3,30.24,NE,45,2.7,2.7,45,0.00,,CLR,0.00,VWS V14.01,2013-10-14 23:09:00,
2013-10-14 19:14:00,52.7,32.5,30.24,NE,45,2.7,2.7,46,0.00,,CLR,0.00,VWS V14.01,2013-10-14 23:14:00,
2013-10-14 19:19:00,52.3,32.2,30.24,NE,45,2.7,2.7,46,0.00,,CLR,0.00,VWS V14.01,2013-10-14 23:19:00,
2013-10-14 19:24:00,51.8,31.7,30.24,NE,45,2.7,2.7,46,0.00,,CLR,0.00,VWS V14.01,2013-10-14 23:24:00,
2013-10-14 19:29:00,51.4,31.9,30.24,NE,45,2.7,2.7,47,0.00,,CLR,0.00,VWS V14.01,2013-10-14 23:29:00,
2013-10-14 19:34:00,50.9,31.4,30.24,NE,45,2.7,2.7,47,0.00,,CLR,0.00,VWS V14.01,2013-10-14 23:34:00,
2013-10-14 19:39:00,50.7,31.8,30.24,NE,45,2.7,2.7,48,0.00,,CLR,0.00,VWS V14.01,2013-10-14 23:39:00,
2013-10-14 19:44:00,50.4,31.9,30.24,NE,45,2.7,2.7,49,0.00,,CLR,0.00,VWS V14.01,2013-10-14 23:44:00,
2013-10-14 19:49:00,50.0,31.6,30.27,NE,45,2.7,2.7,49,0.00,,CLR,0.00,VWS V14.01,2013-10-14 23:49:00,
2013-10-14 19:54:00,49.8,31.9,30.27,NE,45,2.7,2.7,50,0.00,,CLR,0.00,VWS V14.01,2013-10-14 23:54:00,
2013-10-14 19:59:00,49.6,32.3,30.27,NE,45,2.7,2.7,51,0.00,,CLR,0.00,VWS V14.01,2013-10-14 23:59:00,
2013-10-14 20:04:00,49.5,32.6,30.24,NE,45,2.7,2.7,52,0.00,,CLR,0.00,VWS V14.01,2013-10-15 00:04:00,
2013-10-14 20:09:00,49.3,32.4,30.24,NE,45,2.7,2.7,52,0.00,,CLR,0.00,VWS V14.01,2013-10-15 00:09:00,
2013-10-14 20:14:00,49.1,32.7,30.24,NE,45,2.7,2.7,53,0.00,,CLR,0.00,VWS V14.01,2013-10-15 00:14:00,
2013-10-14 20:19:00,48.7,32.4,30.24,NE,45,2.7,2.7,53,0.00,,CLR,0.00,VWS V14.01,2013-10-15 00:19:00,
2013-10-14 20:24:00,48.7,32.8,30.24,NE,45,2.7,2.7,54,0.00,,CLR,0.00,VWS V14.01,2013-10-15 00:24:00,
2013-10-14 20:29:00,48.7,32.8,30.24,NE,45,2.7,2.7,54,0.00,,CLR,0.00,VWS V14.01,2013-10-15 00:29:00,
2013-10-14 20:34:00,48.4,32.5,30.24,NE,45,2.7,2.7,54,0.00,,CLR,0.00,VWS V14.01,2013-10-15 00:34:00,
2013-10-14 20:39:00,48.4,33.0,30.24,NE,45,2.7,2.7,55,0.00,,CLR,0.00,VWS V14.01,2013-10-15 00:39:00,
2013-10-14 20:44:00,48.4,33.0,30.24,NE,45,2.7,2.7,55,0.00,,CLR,0.00,VWS V14.01,2013-10-15 00:44:00,
2013-10-14 20:49:00,48.4,33.4,30.24,NE,45,2.7,2.7,56,0.00,,CLR,0.00,VWS V14.01,2013-10-15 00:49:00,
2013-10-14 20:54:00,48.4,33.4,30.24,NE,45,2.7,2.7,56,0.00,,CLR,0.00,VWS V14.01,2013-10-15 00:54:00,
2013-10-14 20:59:00,48.4,34.3,30.24,NE,45,2.7,2.7,58,0.00,,CLR,0.00,VWS V14.01,2013-10-15 00:59:00,
2013-10-14 21:04:00,48.4,34.7,30.24,NE,45,2.7,2.7,59,0.00,,CLR,0.00,VWS V14.01,2013-10-15 01:04:00,
2013-10-14 21:09:00,48.2,34.1,30.24,NE,45,2.7,2.7,58,0.00,,CLR,0.00,VWS V14.01,2013-10-15 01:09:00,
2013-10-14 21:14:00,47.8,34.2,30.24,NE,45,2.7,2.7,59,0.00,,CLR,0.00,VWS V14.01,2013-10-15 01:14:00,
2013-10-14 21:19:00,47.7,34.9,30.24,NE,45,2.7,2.7,61,0.00,,CLR,0.00,VWS V14.01,2013-10-15 01:19:00,
2013-10-14 21:24:00,47.5,34.7,30.24,NE,45,2.7,2.7,61,0.00,,CLR,0.00,VWS V14.01,2013-10-15 01:24:00,
2013-10-14 21:29:00,47.3,35.0,30.24,NE,45,2.7,2.7,62,0.00,,CLR,0.00,VWS V14.01,2013-10-15 01:29:00,
2013-10-14 21:34:00,47.1,34.8,30.24,NE,45,2.7,2.7,62,0.00,,CLR,0.00,VWS V14.01,2013-10-15 01:34:00,
2013-10-14 21:39:00,46.8,34.0,30.24,NE,45,2.7,2.7,61,0.00,,CLR,0.00,VWS V14.01,2013-10-15 01:39:00,
2013-10-14 21:44:00,46.4,34.1,30.24,NE,45,2.7,2.7,62,0.00,,CLR,0.00,VWS V14.01,2013-10-15 01:44:00,
2013-10-14 21:49:00,46.0,33.8,30.24,NE,45,2.7,2.7,62,0.00,,CLR,0.00,VWS V14.01,2013-10-15 01:49:00,
2013-10-14 21:54:00,45.7,33.4,30.24,NE,45,2.7,2.7,62,0.00,,CLR,0.00,VWS V14.01,2013-10-15 01:54:00,
2013-10-14 21:59:00,45.5,33.7,30.24,NE,45,2.7,2.7,63,0.00,,CLR,0.00,VWS V14.01,2013-10-15 01:59:00,
2013-10-14 22:04:00,45.3,33.9,30.24,NE,45,2.7,2.7,64,0.00,,CLR,0.00,VWS V14.01,2013-10-15 02:04:00,
2013-10-14 22:09:00,45.5,34.8,30.24,NE,45,2.7,2.7,66,0.00,,CLR,0.00,VWS V14.01,2013-10-15 02:09:00,
2013-10-14 22:14:00,45.7,35.4,30.24,NE,45,2.7,2.7,67,0.00,,CLR,0.00,VWS V14.01,2013-10-15 02:14:00,
2013-10-14 22:19:00,45.7,35.4,30.24,NE,45,2.7,2.7,67,0.00,,CLR,0.00,VWS V14.01,2013-10-15 02:19:00,
2013-10-14 22:24:00,45.9,35.9,30.24,NE,45,2.7,2.7,68,0.00,,CLR,0.00,VWS V14.01,2013-10-15 02:24:00,
2013-10-14 22:29:00,45.7,35.4,30.24,NE,45,2.7,2.7,67,0.00,,CLR,0.00,VWS V14.01,2013-10-15 02:29:00,
2013-10-14 22:34:00,45.5,35.2,30.24,NE,45,2.7,2.7,67,0.00,,CLR,0.00,VWS V14.01,2013-10-15 02:34:00,
2013-10-14 22:39:00,45.3,34.6,30.24,NE,45,2.7,2.7,66,0.00,,CLR,0.00,VWS V14.01,2013-10-15 02:39:00,
2013-10-14 22:44:00,45.3,34.6,30.24,NE,45,2.7,2.7,66,0.00,,CLR,0.00,VWS V14.01,2013-10-15 02:44:00,
2013-10-14 22:49:00,45.1,34.1,30.24,NE,45,2.7,2.7,65,0.00,,CLR,0.00,VWS V14.01,2013-10-15 02:49:00,
2013-10-14 22:54:00,44.2,32.8,30.24,NE,45,2.7,2.7,64,0.00,,CLR,0.00,VWS V14.01,2013-10-15 02:54:00,
2013-10-14 22:59:00,43.7,32.3,30.24,NE,45,2.7,2.7,64,0.00,,CLR,0.00,VWS V14.01,2013-10-15 02:59:00,
2013-10-14 23:04:00,43.0,31.3,30.24,NE,45,2.7,2.7,63,0.00,,CLR,0.00,VWS V14.01,2013-10-15 03:04:00,
2013-10-14 23:09:00,42.3,31.0,30.24,NE,45,2.7,2.7,64,0.00,,CLR,0.00,VWS V14.01,2013-10-15 03:09:00,
2013-10-14 23:14:00,41.9,31.0,30.24,NE,45,2.7,2.7,65,0.00,,CLR,0.00,VWS V14.01,2013-10-15 03:14:00,
2013-10-14 23:19:00,41.7,31.2,30.24,NE,45,2.7,2.7,66,0.00,,CLR,0.00,VWS V14.01,2013-10-15 03:19:00,
2013-10-14 23:24:00,41.7,31.6,30.24,NE,45,2.7,2.7,67,0.00,,CLR,0.00,VWS V14.01,2013-10-15 03:24:00,
2013-10-14 23:29:00,41.4,31.2,30.24,NE,45,2.7,2.7,67,0.00,,CLR,0.00,VWS V14.01,2013-10-15 03:29:00,
2013-10-14 23:34:00,41.2,31.4,30.24,NE,45,2.7,2.7,68,0.00,,CLR,0.00,VWS V14.01,2013-10-15 03:34:00,
2013-10-14 23:39:00,41.0,31.6,30.24,NE,45,2.7,2.7,69,0.00,,CLR,0.00,VWS V14.01,2013-10-15 03:39:00,
2013-10-14 23:44:00,40.5,31.1,30.24,NE,45,2.7,2.7,69,0.00,,CLR,0.00,VWS V14.01,2013-10-15 03:44:00,
2013-10-14 23:49:00,40.5,31.5,30.24,NE,45,2.7,2.7,70,0.00,,CLR,0.00,VWS V14.01,2013-10-15 03:49:00,
2013-10-14 23:54:00,40.3,31.6,30.24,NE,45,2.7,2.7,71,0.00,,CLR,0.00,VWS V14.01,2013-10-15 03:54:00,
2013-10-14 23:59:00,40.5,33.2,30.24,NE,45,2.7,2.7,75,0.00,,CLR,0.00,VWS V14.01,2013-10-15 03:59:00,